Terminal Aerodrome Forecast
Issued by NWS

Home | Current Version | Previous Version | Text Only | Print | Product List | Glossary On
Versions: 1 2 3 4 5 6 7 8 9 10 11 12 13
000
FTUS46 KSGX 160800 AAA
TAFTRM
TAF AMD
KTRM 160836Z 1609/1706 15010KT P6SM SKC
     FM161300 VRB06KT P6SM SKC
     FM161900 14012KT P6SM SCT100
     FM170200 VRB06KT P6SM SCT100 SCT150=

USA.gov is the U.S. government's official web portal to all federal, state and local government web resources and services.